Oliverea, New York
Current Conditions -  °F | °C
As of 7:35 PM on Saturday 25 Oct 2014 (Local Time) from KMSV Reporting Station
Clear Clear  
Wind Chill: 55°   Ceiling: Unl
Heat Index: 55°   Visibility: 10mi
Dew Point: 43°   Wind: 7mph
Humidity: 63%   Direction: 210°SSW
Pressure: 29.6"   Gusts: NA
Location:  42.1356°N, 74.4393°W
Report Text: KMSV 252335Z AUTO 21006KT 10SM CLR 13/06 A2960 RMK AO1
Loading
Personal Weather Stations






























Interactive Weather Map
Tropical Storm Tracking
New forecast layout! Learn more

10-Day Weather Forecast

Advertisements
Track Severe Weather on mobile